sensor_id;sensor_type;location;lat;lon;timestamp;pressure;altitude;pressure_sealevel;temperature;humidity
24302;BME280;12421;49.732;20.078;2023-06-14T00:05:03;96745.65;;;5.48;83.85
24302;BME280;12421;49.732;20.078;2023-06-14T00:15:22;96740.69;;;5.64;83.23
24302;BME280;12421;49.732;20.078;2023-06-14T00:25:30;96739.40;;;5.83;83.45
24302;BME280;12421;49.732;20.078;2023-06-14T00:35:45;96730.65;;;6.16;83.61
24302;BME280;12421;49.732;20.078;2023-06-14T00:46:07;96721.66;;;6.44;83.37
24302;BME280;12421;49.732;20.078;2023-06-14T00:56:20;96716.27;;;6.76;82.91
24302;BME280;12421;49.732;20.078;2023-06-14T01:07:02;96714.38;;;7.01;82.47
24302;BME280;12421;49.732;20.078;2023-06-14T01:17:26;96714.34;;;7.26;82.77
24302;BME280;12421;49.732;20.078;2023-06-14T01:28:05;96705.21;;;7.51;83.09
24302;BME280;12421;49.732;20.078;2023-06-14T01:38:53;96703.09;;;7.57;83.05
24302;BME280;12421;49.732;20.078;2023-06-14T02:10:35;96695.33;;;8.20;84.03
24302;BME280;12421;49.732;20.078;2023-06-14T02:20:43;96697.70;;;8.37;83.18
24302;BME280;12421;49.732;20.078;2023-06-14T02:31:23;96697.96;;;8.50;82.83
24302;BME280;12421;49.732;20.078;2023-06-14T02:41:33;96700.90;;;8.56;82.68
24302;BME280;12421;49.732;20.078;2023-06-14T03:02:28;96698.02;;;8.90;83.19
24302;BME280;12421;49.732;20.078;2023-06-14T03:24:31;96691.44;;;9.21;81.91
24302;BME280;12421;49.732;20.078;2023-06-14T03:35:06;96691.89;;;9.28;81.16
24302;BME280;12421;49.732;20.078;2023-06-14T03:45:10;96694.81;;;9.15;81.68
24302;BME280;12421;49.732;20.078;2023-06-14T04:06:48;96692.41;;;9.62;81.81
24302;BME280;12421;49.732;20.078;2023-06-14T04:27:26;96701.54;;;10.35;81.56
24302;BME280;12421;49.732;20.078;2023-06-14T04:49:26;96707.13;;;10.72;79.67
24302;BME280;12421;49.732;20.078;2023-06-14T04:59:54;96706.70;;;10.88;79.54
24302;BME280;12421;49.732;20.078;2023-06-14T05:21:51;96703.64;;;11.74;78.51
24302;BME280;12421;49.732;20.078;2023-06-14T05:32:17;96710.27;;;11.96;77.40
24302;BME280;12421;49.732;20.078;2023-06-14T05:42:21;96719.88;;;12.08;77.21
24302;BME280;12421;49.732;20.078;2023-06-14T05:52:59;96721.47;;;12.16;76.13
24302;BME280;12421;49.732;20.078;2023-06-14T06:03:18;96723.52;;;12.19;75.77
24302;BME280;12421;49.732;20.078;2023-06-14T06:14:02;96729.46;;;12.54;75.77
24302;BME280;12421;49.732;20.078;2023-06-14T06:35:11;96743.54;;;12.62;76.82
24302;BME280;12421;49.732;20.078;2023-06-14T06:56:08;96763.48;;;12.77;76.92
24302;BME280;12421;49.732;20.078;2023-06-14T07:06:40;96762.67;;;12.81;76.87
24302;BME280;12421;49.732;20.078;2023-06-14T07:17:26;96769.63;;;13.16;77.25
24302;BME280;12421;49.732;20.078;2023-06-14T07:28:05;96774.91;;;13.66;77.25
24302;BME280;12421;49.732;20.078;2023-06-14T07:38:33;96778.79;;;13.94;77.00
24302;BME280;12421;49.732;20.078;2023-06-14T08:12:06;96788.58;;;13.70;78.20
24302;BME280;12421;49.732;20.078;2023-06-14T08:33:50;96793.46;;;14.00;78.29
24302;BME280;12421;49.732;20.078;2023-06-14T08:44:05;96792.58;;;14.46;77.99
24302;BME280;12421;49.732;20.078;2023-06-14T08:54:22;96798.08;;;14.81;76.71
24302;BME280;12421;49.732;20.078;2023-06-14T09:04:48;96809.67;;;15.01;76.17
24302;BME280;12421;49.732;20.078;2023-06-14T09:15:11;96813.84;;;15.49;76.13
24302;BME280;12421;49.732;20.078;2023-06-14T09:25:20;96816.38;;;16.31;74.39
24302;BME280;12421;49.732;20.078;2023-06-14T09:35:52;96815.96;;;16.53;72.28
24302;BME280;12421;49.732;20.078;2023-06-14T09:46:08;96817.46;;;16.51;72.42
24302;BME280;12421;49.732;20.078;2023-06-14T09:56:38;96813.98;;;16.93;71.24
24302;BME280;12421;49.732;20.078;2023-06-14T10:07:06;96815.41;;;17.02;71.44
24302;BME280;12421;49.732;20.078;2023-06-14T10:29:18;96808.23;;;17.40;69.05
24302;BME280;12421;49.732;20.078;2023-06-14T10:39:40;96811.39;;;17.76;68.27
24302;BME280;12421;49.732;20.078;2023-06-14T10:49:51;96804.16;;;18.77;66.62
24302;BME280;12421;49.732;20.078;2023-06-14T11:00:08;96791.80;;;19.48;65.07
24302;BME280;12421;49.732;20.078;2023-06-14T11:10:59;96786.88;;;20.08;61.77
24302;BME280;12421;49.732;20.078;2023-06-14T11:21:05;96781.64;;;19.88;59.32
24302;BME280;12421;49.732;20.078;2023-06-14T11:31:22;96775.98;;;19.73;59.94
24302;BME280;12421;49.732;20.078;2023-06-14T11:41:49;96769.98;;;20.06;59.16
24302;BME280;12421;49.732;20.078;2023-06-14T11:52:05;96764.44;;;19.86;59.80
24302;BME280;12421;49.732;20.078;2023-06-14T12:02:10;96763.20;;;19.75;59.08
24302;BME280;12421;49.732;20.078;2023-06-14T12:12:22;96761.53;;;19.07;60.15
24302;BME280;12421;49.732;20.078;2023-06-14T12:22:35;96740.61;;;18.82;60.63
24302;BME280;12421;49.732;20.078;2023-06-14T12:32:40;96738.36;;;18.96;60.04
24302;BME280;12421;49.732;20.078;2023-06-14T12:42:44;96734.41;;;19.19;58.79
24302;BME280;12421;49.732;20.078;2023-06-14T12:52:50;96726.17;;;19.39;58.34
24302;BME280;12421;49.732;20.078;2023-06-14T13:02:54;96726.86;;;19.79;58.77
24302;BME280;12421;49.732;20.078;2023-06-14T13:13:15;96723.10;;;19.21;59.02
24302;BME280;12421;49.732;20.078;2023-06-14T13:23:19;96717.95;;;19.33;59.66
24302;BME280;12421;49.732;20.078;2023-06-14T13:33:24;96722.66;;;19.27;58.99
24302;BME280;12421;49.732;20.078;2023-06-14T13:43:27;96723.79;;;19.55;57.78
24302;BME280;12421;49.732;20.078;2023-06-14T13:53:53;96723.60;;;19.73;57.25
24302;BME280;12421;49.732;20.078;2023-06-14T14:03:59;96726.54;;;20.10;57.10
24302;BME280;12421;49.732;20.078;2023-06-14T14:14:04;96728.05;;;20.14;56.03
24302;BME280;12421;49.732;20.078;2023-06-14T14:24:21;96734.06;;;19.67;57.98
24302;BME280;12421;49.732;20.078;2023-06-14T14:34:26;96736.95;;;19.90;59.04
24302;BME280;12421;49.732;20.078;2023-06-14T14:44:33;96746.60;;;20.28;57.63
24302;BME280;12421;49.732;20.078;2023-06-14T14:54:52;96731.83;;;20.17;56.56
24302;BME280;12421;49.732;20.078;2023-06-14T15:04:57;96716.86;;;20.10;56.68
24302;BME280;12421;49.732;20.078;2023-06-14T15:15:09;96730.86;;;19.91;58.33
24302;BME280;12421;49.732;20.078;2023-06-14T15:25:15;96735.42;;;19.20;59.95
24302;BME280;12421;49.732;20.078;2023-06-14T15:46:06;96738.76;;;17.84;63.04
24302;BME280;12421;49.732;20.078;2023-06-14T15:56:14;96736.36;;;17.70;64.07
24302;BME280;12421;49.732;20.078;2023-06-14T16:07:19;96744.27;;;17.97;64.03
24302;BME280;12421;49.732;20.078;2023-06-14T16:17:26;96744.73;;;18.39;63.66
24302;BME280;12421;49.732;20.078;2023-06-14T16:27:37;96753.77;;;18.52;62.18
24302;BME280;12421;49.732;20.078;2023-06-14T16:37:52;96764.48;;;18.26;62.42
24302;BME280;12421;49.732;20.078;2023-06-14T16:47:59;96777.35;;;18.24;62.44
24302;BME280;12421;49.732;20.078;2023-06-14T16:58:03;96777.98;;;18.43;61.97
24302;BME280;12421;49.732;20.078;2023-06-14T17:08:30;96776.44;;;18.50;62.14
24302;BME280;12421;49.732;20.078;2023-06-14T17:18:38;96782.52;;;18.41;62.42
24302;BME280;12421;49.732;20.078;2023-06-14T17:28:42;96786.80;;;18.20;62.14
24302;BME280;12421;49.732;20.078;2023-06-14T17:38:58;96785.72;;;17.95;62.64
24302;BME280;12421;49.732;20.078;2023-06-14T17:49:33;96786.90;;;17.71;63.74
24302;BME280;12421;49.732;20.078;2023-06-14T18:00:02;96789.23;;;17.40;64.52
24302;BME280;12421;49.732;20.078;2023-06-14T18:10:17;96792.86;;;17.21;66.50
24302;BME280;12421;49.732;20.078;2023-06-14T18:20:24;96810.35;;;16.86;67.69
24302;BME280;12421;49.732;20.078;2023-06-14T18:30:42;96816.08;;;16.56;68.99
24302;BME280;12421;49.732;20.078;2023-06-14T18:41:00;96821.30;;;16.37;70.07
24302;BME280;12421;49.732;20.078;2023-06-14T18:51:48;96828.66;;;16.14;70.75
24302;BME280;12421;49.732;20.078;2023-06-14T19:02:25;96832.70;;;15.84;71.24
24302;BME280;12421;49.732;20.078;2023-06-14T19:12:51;96847.95;;;15.51;72.38
24302;BME280;12421;49.732;20.078;2023-06-14T19:23:46;96858.24;;;15.32;72.89
24302;BME280;12421;49.732;20.078;2023-06-14T20:08:17;96892.64;;;14.22;75.68
24302;BME280;12421;49.732;20.078;2023-06-14T20:18:50;96891.25;;;13.93;76.30
24302;BME280;12421;49.732;20.078;2023-06-14T20:29:11;96887.41;;;13.62;76.86
24302;BME280;12421;49.732;20.078;2023-06-14T20:50:31;96896.59;;;13.15;76.90
24302;BME280;12421;49.732;20.078;2023-06-14T21:00:35;96900.27;;;12.81;77.01
24302;BME280;12421;49.732;20.078;2023-06-14T21:10:56;96897.55;;;12.49;77.05
24302;BME280;12421;49.732;20.078;2023-06-14T21:21:16;96885.77;;;12.00;77.19
24302;BME280;12421;49.732;20.078;2023-06-14T21:31:22;96881.20;;;11.55;78.23
24302;BME280;12421;49.732;20.078;2023-06-14T21:41:40;96881.66;;;11.24;79.15
24302;BME280;12421;49.732;20.078;2023-06-14T21:52:01;96886.66;;;10.92;79.62
24302;BME280;12421;49.732;20.078;2023-06-14T22:13:23;96883.67;;;10.65;80.67
24302;BME280;12421;49.732;20.078;2023-06-14T22:23:50;96881.80;;;10.46;80.37
24302;BME280;12421;49.732;20.078;2023-06-14T22:34:07;96874.98;;;10.27;80.20
24302;BME280;12421;49.732;20.078;2023-06-14T22:44:32;96867.07;;;9.91;80.00
24302;BME280;12421;49.732;20.078;2023-06-14T22:55:14;96869.70;;;9.71;80.39
24302;BME280;12421;49.732;20.078;2023-06-14T23:05:59;96872.76;;;9.61;80.20
24302;BME280;12421;49.732;20.078;2023-06-14T23:16:22;96877.24;;;9.26;79.85
24302;BME280;12421;49.732;20.078;2023-06-14T23:38:01;96886.09;;;8.78;81.43
24302;BME280;12421;49.732;20.078;2023-06-14T23:48:30;96888.41;;;8.67;81.16
24302;BME280;12421;49.732;20.078;2023-06-14T23:58:48;96876.94;;;8.47;81.35
